Time,TemperatureF,DewpointF,PressureIn,WindDirection,WindDirectionDegrees,WindSpeedMPH,WindSpeedGustMPH,Humidity,HourlyPrecipIn,Conditions,Clouds,dailyrainin,SoftwareType,DateUTC
2013-10-23 00:50:00,39.4,32.2,29.85,SW,225,0.0,0.0,75,0.00,,,0.00,WUHU21623XXSP,2013-10-23 04:50:00,
2013-10-23 01:50:00,39.0,32.1,29.85,SW,225,0.0,0.0,76,0.00,,,0.00,WUHU21623XXSP,2013-10-23 05:50:00,
2013-10-23 02:50:00,37.6,31.4,29.83,North,0,0.0,0.0,78,0.00,,,0.00,WUHU21623XXSP,2013-10-23 06:50:00,
2013-10-23 03:50:00,36.1,30.5,29.83,North,0,0.0,0.0,80,0.00,,,0.00,WUHU21623XXSP,2013-10-23 07:50:00,
2013-10-23 04:50:00,36.1,30.8,29.81,North,0,0.0,0.0,81,0.00,,,0.00,WUHU21623XXSP,2013-10-23 08:50:00,
2013-10-23 05:50:00,35.8,31.7,29.82,NNW,338,0.0,0.0,85,0.00,,,0.00,WUHU21623XXSP,2013-10-23 09:50:00,
2013-10-23 06:50:00,34.9,30.8,29.83,NNW,338,0.0,0.0,85,0.00,,,0.00,WUHU21623XXSP,2013-10-23 10:50:00,
2013-10-23 07:50:00,34.5,30.7,29.83,NNW,338,0.0,0.0,86,0.00,,,0.00,WUHU21623XXSP,2013-10-23 11:50:00,
2013-10-23 08:50:00,35.2,32.0,29.84,NNE,23,0.0,0.0,88,0.00,,,0.00,WUHU21623XXSP,2013-10-23 12:50:00,
2013-10-23 09:50:00,37.2,33.7,29.86,North,0,0.0,0.0,87,0.00,,,0.00,WUHU21623XXSP,2013-10-23 13:50:00,
2013-10-23 10:50:00,39.0,34.0,29.86,NNE,23,2.5,2.5,82,0.00,,,0.00,WUHU21623XXSP,2013-10-23 14:50:00,
2013-10-23 11:50:00,41.7,34.4,29.87,NNW,338,4.7,4.7,75,0.00,,,0.00,WUHU21623XXSP,2013-10-23 15:50:00,
2013-10-23 12:50:00,42.6,31.7,29.87,NNW,338,6.9,6.9,65,0.00,,,0.00,WUHU21623XXSP,2013-10-23 16:50:00,
2013-10-23 13:50:00,43.0,30.5,29.85,North,0,0.0,0.0,61,0.00,,,0.00,WUHU21623XXSP,2013-10-23 17:50:00,
2013-10-23 14:50:00,44.2,30.4,29.85,NNW,338,0.0,0.0,58,0.00,,,0.00,WUHU21623XXSP,2013-10-23 18:50:00,
2013-10-23 15:50:00,44.8,28.7,29.85,NNW,338,0.0,0.0,53,0.00,,,0.00,WUHU21623XXSP,2013-10-23 19:50:00,
2013-10-23 16:50:00,43.3,28.7,29.86,North,0,0.0,0.0,56,0.00,,,0.00,WUHU21623XXSP,2013-10-23 20:50:00,
2013-10-23 17:50:00,42.6,28.9,29.88,SW,225,0.0,0.0,58,0.00,,,0.00,WUHU21623XXSP,2013-10-23 21:50:00,
2013-10-23 18:50:00,39.7,29.4,29.88,SSW,203,0.0,0.0,66,0.00,,,0.00,WUHU21623XXSP,2013-10-23 22:50:00,
2013-10-23 19:50:00,37.2,29.1,29.90,SSW,203,0.0,0.0,72,0.00,,,0.00,WUHU21623XXSP,2013-10-23 23:50:00,
2013-10-23 20:50:00,36.1,29.0,29.90,SSW,203,0.0,0.0,75,0.00,,,0.00,WUHU21623XXSP,2013-10-24 00:50:00,
2013-10-23 21:50:00,34.9,28.5,29.91,SSW,203,0.0,0.0,77,0.00,,,0.00,WUHU21623XXSP,2013-10-24 01:50:00,
2013-10-23 22:50:00,34.3,28.5,29.92,SW,225,0.0,0.0,79,0.00,,,0.00,WUHU21623XXSP,2013-10-24 02:50:00,
2013-10-23 23:50:00,33.6,28.1,29.92,SW,225,0.0,0.0,80,0.00,,,0.00,WUHU21623XXSP,2013-10-24 03:50:00,